createdAt,value
2018-03-14T00:01:58.142Z,5.00
2018-03-14T00:04:25.307Z,5.05
2018-03-14T00:06:51.766Z,5.10
2018-03-14T00:09:18.177Z,5.45
2018-03-14T00:11:44.590Z,5.00
2018-03-14T00:14:11.738Z,4.80
2018-03-14T00:16:38.149Z,4.20
2018-03-14T00:19:04.580Z,4.80
2018-03-14T00:21:30.993Z,4.97
2018-03-14T00:23:57.410Z,5.47
2018-03-14T00:26:24.533Z,5.40
2018-03-14T00:28:51.705Z,4.93
2018-03-14T00:31:18.830Z,4.47
2018-03-14T00:33:46.014Z,4.57
2018-03-14T00:36:12.414Z,4.25
2018-03-14T00:38:38.838Z,4.75
2018-03-14T00:41:05.270Z,4.60
2018-03-14T00:43:31.658Z,4.70
2018-03-14T00:45:58.087Z,5.05
2018-03-14T00:48:24.474Z,5.27
2018-03-14T00:50:50.900Z,5.10
2018-03-14T00:53:17.289Z,5.32
2018-03-14T00:55:43.690Z,5.62
2018-03-14T00:58:10.114Z,5.70
2018-03-14T01:00:36.506Z,5.87
2018-03-14T01:03:02.934Z,6.00
2018-03-14T01:05:29.362Z,6.30
2018-03-14T01:07:55.836Z,6.67
2018-03-14T01:10:22.282Z,6.60
2018-03-14T01:12:48.702Z,5.90
2018-03-14T01:15:15.245Z,7.07
2018-03-14T01:17:41.649Z,6.03
2018-03-14T01:20:08.063Z,6.50
2018-03-14T01:22:34.492Z,6.53
2018-03-14T01:25:01.657Z,7.10
2018-03-14T01:27:28.090Z,7.40
2018-03-14T01:29:54.496Z,6.90
2018-03-14T01:32:21.693Z,7.60
2018-03-14T01:34:48.104Z,7.03
2018-03-14T01:37:15.260Z,7.70
2018-03-14T01:39:41.658Z,7.30
2018-03-14T01:42:08.087Z,7.70
2018-03-14T01:44:34.482Z,7.65
2018-03-14T01:47:00.904Z,8.65
2018-03-14T01:49:27.321Z,8.60
2018-03-14T01:51:54.447Z,8.25
2018-03-14T01:54:20.964Z,8.50
2018-03-14T01:56:47.353Z,9.02
2018-03-14T01:59:13.790Z,9.17
2018-03-14T02:01:40.287Z,8.75
2018-03-14T02:04:06.674Z,8.48
2018-03-14T02:06:33.109Z,8.40
2018-03-14T02:08:59.573Z,8.30
2018-03-14T02:11:26.001Z,8.20
2018-03-14T02:13:52.536Z,8.20
2018-03-14T02:16:18.925Z,7.45
2018-03-14T02:18:45.351Z,7.40
2018-03-14T02:21:12.485Z,7.05
2018-03-14T02:23:38.917Z,7.30
2018-03-14T02:26:05.327Z,7.53
2018-03-14T02:28:31.735Z,6.82
2018-03-14T02:30:58.141Z,6.60
2018-03-14T02:33:25.318Z,7.57
2018-03-14T02:35:52.477Z,7.30
2018-03-14T02:38:18.917Z,7.78
2018-03-14T02:40:45.307Z,7.72
2018-03-14T02:43:11.705Z,7.28
2018-03-14T02:45:38.107Z,8.20
2018-03-14T02:48:05.257Z,8.20
2018-03-14T02:50:32.366Z,8.45
2018-03-14T02:52:58.762Z,7.70
2018-03-14T02:55:25.153Z,8.30
2018-03-14T02:57:51.553Z,7.90
2018-03-14T03:00:17.947Z,8.38
2018-03-14T03:02:44.322Z,8.10
2018-03-14T03:05:10.733Z,7.80
2018-03-14T03:07:37.110Z,8.02
2018-03-14T03:10:03.568Z,7.78
2018-03-14T03:12:30.726Z,8.60
2018-03-14T03:14:57.862Z,8.05
2018-03-14T03:17:24.267Z,8.02
2018-03-14T03:19:50.657Z,8.00
2018-03-14T03:22:17.105Z,8.45
2018-03-14T03:24:43.518Z,8.50
2018-03-14T03:27:10.651Z,8.18
2018-03-14T03:29:37.037Z,8.68
2018-03-14T03:32:03.402Z,8.15
2018-03-14T03:34:29.862Z,7.90
2018-03-14T03:36:57.029Z,9.20
2018-03-14T03:39:23.406Z,8.85
2018-03-14T03:41:49.806Z,10.25
2018-03-14T03:44:16.213Z,8.90
2018-03-14T03:46:43.399Z,9.40
2018-03-14T03:49:09.788Z,8.60
2018-03-14T03:51:36.201Z,9.80
2018-03-14T03:54:02.615Z,10.02
2018-03-14T03:56:28.995Z,9.43
2018-03-14T03:58:55.390Z,10.65
2018-03-14T04:01:21.781Z,12.02
2018-03-14T04:03:48.918Z,10.40
2018-03-14T04:06:16.059Z,10.60
2018-03-14T04:08:42.457Z,11.05
2018-03-14T04:11:08.858Z,10.98
2018-03-14T04:13:35.296Z,9.90
2018-03-14T04:16:01.703Z,10.60
2018-03-14T04:18:28.896Z,9.70
2018-03-14T04:20:56.214Z,11.82
2018-03-14T04:23:23.362Z,10.75
2018-03-14T04:25:50.485Z,11.10
2018-03-14T04:28:16.945Z,10.55
2018-03-14T04:30:44.254Z,11.00
2018-03-14T04:33:10.658Z,10.43
2018-03-14T04:35:38.108Z,11.63
2018-03-14T04:38:05.217Z,12.40
2018-03-14T04:40:31.611Z,10.73
2018-03-14T04:42:57.995Z,12.60
2018-03-14T04:45:24.378Z,11.15
2018-03-14T04:47:50.794Z,11.30
2018-03-14T04:50:17.957Z,12.55
2018-03-14T04:52:44.420Z,12.27
2018-03-14T04:55:10.890Z,11.85
2018-03-14T04:57:37.286Z,12.20
2018-03-14T05:00:03.743Z,13.95
2018-03-14T05:02:30.146Z,12.23
2018-03-14T05:04:56.533Z,15.10
2018-03-14T05:07:22.933Z,12.63
2018-03-14T05:09:49.334Z,13.32
2018-03-14T05:12:15.715Z,15.48
2018-03-14T05:14:42.159Z,14.38
2018-03-14T05:17:08.527Z,13.80
2018-03-14T05:19:34.944Z,13.95
2018-03-14T05:22:02.065Z,14.52
2018-03-14T05:24:28.481Z,12.95
2018-03-14T05:26:54.896Z,12.88
2018-03-14T05:29:21.275Z,12.98
2018-03-14T05:31:47.681Z,14.68
2018-03-14T05:34:14.058Z,13.95
2018-03-14T05:36:40.448Z,13.07
2018-03-14T05:39:06.824Z,15.50
2018-03-14T05:41:33.223Z,14.93
2018-03-14T05:43:59.619Z,15.27
2018-03-14T05:46:26.759Z,14.10
2018-03-14T05:48:53.871Z,12.83
2018-03-14T05:51:20.276Z,12.55
2018-03-14T05:53:46.673Z,14.00
2018-03-14T05:56:13.806Z,14.13
2018-03-14T05:58:40.289Z,12.87
2018-03-14T06:01:06.662Z,14.48
2018-03-14T06:03:33.067Z,13.88
2018-03-14T06:05:59.485Z,13.52
2018-03-14T06:08:25.890Z,12.90
2018-03-14T06:10:53.029Z,13.25
2018-03-14T06:13:19.434Z,13.80
2018-03-14T06:15:45.843Z,11.82
2018-03-14T06:18:12.254Z,13.15
2018-03-14T06:20:39.408Z,13.40
2018-03-14T06:23:06.550Z,15.35
2018-03-14T06:25:33.782Z,11.40
2018-03-14T06:28:00.155Z,12.57
2018-03-14T06:30:27.309Z,11.57
2018-03-14T06:32:53.738Z,11.02
2018-03-14T06:35:20.890Z,12.48
2018-03-14T06:37:48.029Z,11.48
2018-03-14T06:40:15.146Z,10.23
2018-03-14T06:42:41.570Z,10.38
2018-03-14T06:45:07.938Z,9.70
2018-03-14T06:47:34.352Z,10.30
2018-03-14T06:50:00.734Z,9.32
2018-03-14T06:52:27.113Z,9.40
2018-03-14T06:54:53.512Z,9.75
2018-03-14T06:57:19.911Z,11.10
2018-03-14T06:59:58.501Z,8.80
2018-03-14T07:16:09.128Z,7.95
2018-03-14T07:18:35.517Z,8.80
2018-03-14T07:21:01.924Z,8.47
2018-03-14T07:23:28.338Z,7.95
2018-03-14T07:25:54.750Z,7.57
2018-03-14T07:28:21.866Z,8.00
2018-03-14T07:30:48.275Z,8.52
2018-03-14T07:33:14.679Z,7.65
2018-03-14T07:35:41.058Z,8.27
2018-03-14T07:38:07.477Z,8.50
2018-03-14T07:40:33.869Z,9.25
2018-03-14T07:43:01.031Z,9.55
2018-03-14T07:45:27.422Z,8.73
2018-03-14T07:47:53.824Z,9.00
2018-03-14T07:50:20.211Z,9.13
2018-03-14T07:52:47.318Z,9.25
2018-03-14T07:55:13.715Z,9.73
2018-03-14T07:57:40.088Z,9.57
2018-03-14T08:00:06.490Z,9.25
2018-03-14T08:02:32.868Z,9.30
2018-03-14T08:04:59.266Z,9.57
2018-03-14T08:07:25.638Z,8.70
2018-03-14T08:09:52.046Z,9.60
2018-03-14T08:12:18.481Z,9.95
2018-03-14T08:14:44.958Z,9.07
2018-03-14T08:17:11.413Z,9.17
2018-03-14T08:19:38.591Z,9.23
2018-03-14T08:22:05.003Z,9.18
2018-03-14T08:24:32.126Z,9.53
2018-03-14T08:26:59.321Z,9.65
2018-03-14T08:29:25.691Z,10.07
2018-03-14T08:31:52.095Z,10.60
2018-03-14T08:34:18.502Z,10.05
2018-03-14T08:36:45.609Z,9.20
2018-03-14T08:39:12.026Z,10.23
2018-03-14T08:41:38.422Z,10.48
2018-03-14T08:44:05.593Z,9.60
2018-03-14T08:46:31.986Z,10.13
2018-03-14T08:48:58.405Z,10.77
2018-03-14T08:51:24.822Z,11.27
2018-03-14T08:53:51.257Z,10.20
2018-03-14T08:56:17.673Z,10.82
2018-03-14T08:58:44.098Z,10.30
2018-03-14T09:01:10.497Z,11.50
2018-03-14T09:03:36.865Z,11.00
2018-03-14T09:06:03.291Z,11.60
2018-03-14T09:08:29.686Z,11.27
2018-03-14T09:10:56.086Z,10.90
2018-03-14T09:13:22.480Z,10.60
2018-03-14T09:15:49.662Z,11.30
2018-03-14T09:18:16.038Z,10.27
2018-03-14T09:20:42.440Z,10.63
2018-03-14T09:23:08.821Z,9.80
2018-03-14T09:25:36.009Z,15.43
2018-03-14T09:28:02.401Z,11.45
2018-03-14T09:30:28.813Z,10.95
2018-03-14T09:32:55.206Z,13.23
2018-03-14T09:35:21.661Z,11.15
2018-03-14T09:37:48.062Z,10.80
2018-03-14T09:40:14.452Z,11.23
2018-03-14T09:42:40.863Z,11.10
2018-03-14T09:45:07.274Z,11.00
2018-03-14T09:47:33.693Z,10.95
2018-03-14T09:50:00.833Z,11.00
2018-03-14T09:52:28.034Z,11.00
2018-03-14T09:54:54.446Z,11.30
2018-03-14T09:57:20.818Z,11.63
2018-03-14T09:59:47.249Z,11.50
2018-03-14T10:02:13.651Z,10.70
2018-03-14T10:04:40.090Z,10.87
2018-03-14T10:07:06.483Z,10.70
2018-03-14T10:09:32.903Z,10.50
2018-03-14T10:11:59.294Z,10.70
2018-03-14T10:14:25.748Z,11.00
2018-03-14T10:16:52.142Z,11.85
2018-03-14T10:19:19.300Z,11.55
2018-03-14T10:21:45.759Z,10.10
2018-03-14T10:24:12.165Z,10.83
2018-03-14T10:26:38.578Z,10.73
2018-03-14T10:29:05.101Z,11.90
2018-03-14T10:31:31.517Z,11.57
2018-03-14T10:33:57.947Z,11.15
2018-03-14T10:36:24.359Z,11.90
2018-03-14T10:38:50.754Z,10.45
2018-03-14T10:41:17.886Z,11.05
2018-03-14T10:43:44.348Z,10.35
2018-03-14T10:46:11.519Z,10.25
2018-03-14T10:48:37.923Z,10.13
2018-03-14T10:51:04.312Z,9.07
2018-03-14T10:53:30.714Z,10.45
2018-03-14T10:55:57.125Z,7.18
2018-03-14T10:58:24.268Z,9.52
2018-03-14T11:00:55.658Z,6.25
2018-03-14T11:03:28.068Z,7.78
2018-03-14T11:05:54.455Z,7.10
2018-03-14T11:08:21.577Z,9.10
2018-03-14T11:10:48.068Z,8.32
2018-03-14T11:13:14.422Z,7.40
2018-03-14T11:15:40.804Z,5.95
2018-03-14T11:18:07.987Z,6.20
2018-03-14T11:20:34.353Z,10.15
2018-03-14T11:23:00.746Z,7.60
2018-03-14T11:25:27.147Z,8.25
2018-03-14T11:27:54.272Z,8.43
2018-03-14T11:30:20.682Z,8.25
2018-03-14T11:32:47.071Z,7.47
2018-03-14T11:40:07.389Z,8.18
2018-03-14T11:42:34.526Z,8.18
2018-03-14T11:45:01.666Z,9.00
2018-03-14T11:47:28.108Z,8.55
2018-03-14T11:49:54.498Z,8.43
2018-03-14T11:52:20.921Z,9.52
2018-03-14T11:54:47.309Z,8.90
2018-03-14T11:57:13.715Z,9.68
2018-03-14T11:59:40.132Z,9.65
2018-03-14T12:02:06.503Z,9.63
2018-03-14T12:04:32.923Z,7.72
2018-03-14T12:06:59.334Z,9.75
2018-03-14T12:09:25.796Z,9.27
2018-03-14T12:11:52.171Z,9.38
2018-03-14T12:14:19.334Z,9.70
2018-03-14T12:16:46.454Z,9.00
2018-03-14T12:19:12.851Z,9.20
2018-03-14T12:21:39.235Z,9.05
2018-03-14T12:24:05.638Z,9.20
2018-03-14T12:26:32.014Z,9.50
2018-03-14T12:28:59.172Z,9.55
2018-03-14T12:31:26.310Z,8.20
2018-03-14T12:33:53.438Z,9.15
2018-03-14T12:36:19.864Z,8.90
2018-03-14T12:38:46.244Z,9.50
2018-03-14T12:41:13.390Z,9.50
2018-03-14T12:43:39.810Z,9.75
2018-03-14T12:46:06.227Z,9.80
2018-03-14T12:48:32.606Z,9.38
2018-03-14T12:50:59.045Z,9.10
2018-03-14T12:53:25.421Z,11.02
2018-03-14T12:55:51.863Z,11.45
2018-03-14T12:58:18.242Z,10.40
2018-03-14T13:00:44.649Z,11.40
2018-03-14T13:03:11.101Z,10.63
2018-03-14T13:05:38.255Z,10.97
2018-03-14T13:08:05.411Z,10.70
2018-03-14T13:10:31.784Z,10.30
2018-03-14T13:12:58.183Z,10.38
2018-03-14T13:15:24.604Z,11.23
2018-03-14T13:17:51.754Z,9.93
2018-03-14T13:20:18.133Z,9.75
2018-03-14T13:22:44.527Z,9.95
2018-03-14T13:25:10.950Z,9.90
2018-03-14T13:27:38.079Z,9.55
2018-03-14T13:30:04.633Z,9.83
2018-03-14T13:32:31.754Z,9.50
2018-03-14T13:34:58.154Z,9.90
2018-03-14T13:37:24.534Z,10.20
2018-03-14T13:39:50.924Z,10.32
2018-03-14T13:42:17.295Z,9.90
2018-03-14T13:44:43.706Z,9.40
2018-03-14T13:47:10.174Z,8.40
2018-03-14T13:49:37.288Z,9.00
2018-03-14T13:52:03.691Z,8.93
2018-03-14T13:54:30.813Z,9.00
2018-03-14T13:56:57.222Z,8.13
2018-03-14T13:59:23.634Z,8.87
2018-03-14T14:01:50.019Z,8.60
2018-03-14T14:04:16.431Z,9.27
2018-03-14T14:06:42.806Z,8.68
2018-03-14T14:09:09.949Z,9.57
2018-03-14T14:11:37.070Z,9.18
2018-03-14T14:14:03.511Z,8.85
2018-03-14T14:16:29.906Z,9.88
2018-03-14T14:18:56.351Z,9.27
2018-03-14T14:21:22.751Z,9.00
2018-03-14T14:23:49.146Z,9.35
2018-03-14T14:26:15.565Z,7.90
2018-03-14T14:28:41.935Z,8.00
2018-03-14T14:31:09.085Z,7.57
2018-03-14T14:33:36.217Z,7.78
2018-03-14T14:36:03.348Z,8.38
2018-03-14T14:38:29.749Z,9.77
2018-03-14T14:40:56.181Z,9.25
2018-03-14T14:43:22.599Z,10.30
2018-03-14T14:45:49.771Z,8.90
2018-03-14T14:48:16.172Z,11.18
2018-03-14T14:50:42.553Z,10.70
2018-03-14T14:53:08.974Z,10.70
2018-03-14T14:55:35.354Z,11.57
2018-03-14T14:58:01.746Z,10.70
2018-03-14T15:00:28.160Z,11.38
2018-03-14T15:02:54.554Z,10.30
2018-03-14T15:05:20.984Z,10.70
2018-03-14T15:07:47.357Z,11.00
2018-03-14T15:10:14.508Z,9.90
2018-03-14T15:12:41.638Z,11.10
2018-03-14T15:15:08.039Z,10.27
2018-03-14T15:17:34.423Z,11.10
2018-03-14T15:20:01.586Z,11.38
2018-03-14T15:22:28.752Z,11.10
2018-03-14T15:24:55.179Z,11.40
2018-03-14T15:27:21.612Z,11.50
2018-03-14T15:29:48.030Z,12.13
2018-03-14T15:32:15.195Z,12.73
2018-03-14T15:34:41.603Z,12.48
2018-03-14T15:37:08.039Z,12.73
2018-03-14T15:39:34.445Z,12.60
2018-03-14T15:42:00.870Z,12.70
2018-03-14T15:44:27.324Z,12.45
2018-03-14T15:46:53.799Z,12.45
2018-03-14T15:49:20.986Z,12.35
2018-03-14T15:51:47.378Z,12.40
2018-03-14T15:54:14.519Z,12.82
2018-03-14T15:56:41.673Z,12.40
2018-03-14T15:59:08.804Z,11.90
2018-03-14T16:01:35.202Z,12.57
2018-03-14T16:04:01.580Z,12.05
2018-03-14T16:06:28.758Z,12.93
2018-03-14T16:08:55.883Z,12.70
2018-03-14T16:11:22.282Z,12.30
2018-03-14T16:13:48.684Z,12.10
2018-03-14T16:16:15.090Z,12.65
2018-03-14T16:18:41.466Z,12.23
2018-03-14T16:21:07.866Z,11.63
2018-03-14T16:23:34.980Z,12.82
2018-03-14T16:26:01.386Z,12.50
2018-03-14T16:28:27.798Z,11.95
2018-03-14T16:30:54.920Z,12.10
2018-03-14T16:33:21.321Z,12.90
2018-03-14T16:35:47.710Z,12.98
2018-03-14T16:38:14.879Z,12.52
2018-03-14T16:40:41.261Z,12.52
2018-03-14T16:43:07.666Z,12.07
2018-03-14T16:45:34.162Z,13.30
2018-03-14T16:48:01.351Z,12.95
2018-03-14T16:50:27.754Z,12.40
2018-03-14T16:52:54.889Z,12.18
2018-03-14T16:55:22.070Z,13.62
2018-03-14T16:57:48.462Z,13.50
2018-03-14T17:00:14.930Z,13.25
2018-03-14T17:02:42.090Z,13.10
2018-03-14T17:05:08.498Z,12.70
2018-03-14T17:07:35.644Z,14.38
2018-03-14T17:10:02.081Z,14.90
2018-03-14T17:12:29.234Z,13.93
2018-03-14T18:16:07.972Z,15.73
2018-03-14T18:18:34.463Z,17.60
2018-03-14T18:21:00.859Z,15.17
2018-03-14T18:23:29.183Z,15.63
2018-03-14T18:25:57.701Z,17.15
2018-03-14T18:28:26.048Z,16.80
2018-03-14T18:30:54.516Z,16.12
2018-03-14T18:33:21.804Z,16.40
2018-03-14T18:35:48.226Z,16.48
2018-03-14T18:38:14.692Z,17.05
2018-03-14T18:40:41.094Z,16.98
2018-03-14T18:43:08.327Z,16.43
2018-03-14T18:45:35.560Z,17.30
2018-03-14T18:48:02.037Z,17.30
2018-03-14T18:50:29.316Z,16.85
2018-03-14T18:52:57.484Z,17.05
2018-03-14T18:55:24.766Z,16.83
2018-03-14T18:57:51.188Z,17.67
2018-03-14T19:00:17.637Z,16.90
2018-03-14T19:02:44.094Z,16.60
2018-03-14T19:05:11.243Z,17.50
2018-03-14T19:07:38.395Z,17.77
2018-03-14T19:10:05.554Z,17.33
2018-03-14T19:12:32.720Z,16.25
2018-03-14T19:14:59.103Z,18.40
2018-03-14T19:17:25.542Z,19.48
2018-03-14T19:19:51.964Z,19.73
2018-03-14T19:22:20.705Z,19.60
2018-03-14T19:24:48.833Z,18.70
2018-03-14T19:27:15.296Z,18.50
2018-03-14T19:29:41.704Z,15.90
2018-03-14T19:32:08.159Z,17.37
2018-03-14T19:34:34.610Z,19.17
2018-03-14T19:37:01.796Z,18.10
2018-03-14T19:39:28.248Z,18.87
2018-03-14T19:41:54.656Z,19.67
2018-03-14T19:44:21.136Z,20.92
2018-03-14T19:46:47.559Z,21.10
2018-03-14T19:49:14.017Z,20.33
2018-03-14T19:51:40.428Z,21.77
2018-03-14T19:54:06.849Z,19.60
2018-03-14T19:56:33.263Z,23.17
2018-03-14T19:58:59.721Z,20.90
2018-03-14T20:01:26.174Z,22.25
2018-03-14T20:03:52.589Z,21.65
2018-03-14T20:06:19.008Z,23.80
2018-03-14T20:08:45.529Z,25.50
2018-03-14T20:11:11.951Z,25.83
2018-03-14T20:13:39.133Z,23.83
2018-03-14T20:16:05.530Z,23.48
2018-03-14T20:18:32.724Z,23.90
2018-03-14T20:20:59.140Z,25.67
2018-03-14T20:23:25.566Z,29.85
2018-03-14T20:25:52.714Z,27.65
2018-03-14T20:28:19.880Z,29.48
2018-03-14T20:30:46.303Z,25.83
2018-03-14T20:33:13.470Z,24.55
2018-03-14T20:35:39.887Z,23.92
2018-03-14T20:38:07.030Z,24.75
2018-03-14T20:40:34.141Z,24.45
2018-03-14T20:43:00.522Z,32.25
2018-03-14T20:45:27.663Z,30.77
2018-03-14T20:47:54.830Z,28.10
2018-03-14T20:50:22.050Z,26.40
2018-03-14T20:52:48.459Z,27.52
2018-03-14T20:55:14.888Z,28.17
2018-03-14T20:57:41.262Z,29.50
2018-03-14T21:00:07.675Z,25.55
2018-03-14T21:02:34.143Z,29.25
2018-03-14T21:05:00.559Z,27.85
2018-03-14T21:07:26.946Z,30.08
2018-03-14T21:09:53.328Z,29.10
2018-03-14T21:12:19.728Z,31.95
2018-03-14T21:14:46.125Z,30.20
2018-03-14T21:17:13.291Z,31.12
2018-03-14T21:19:39.717Z,31.00
2018-03-14T21:22:06.140Z,29.95
2018-03-14T21:24:33.250Z,30.60
2018-03-14T21:26:59.649Z,31.55
2018-03-14T21:29:26.025Z,28.87
2018-03-14T21:31:52.431Z,33.42
2018-03-14T21:34:18.821Z,32.93
2018-03-14T21:36:45.967Z,34.20
2018-03-14T21:39:13.132Z,32.45
2018-03-14T21:41:40.243Z,32.47
2018-03-14T21:44:06.681Z,35.13
2018-03-14T21:46:33.082Z,34.20
2018-03-14T21:48:59.508Z,33.30
2018-03-14T21:51:25.895Z,36.38
2018-03-14T21:53:52.329Z,34.35
2018-03-14T21:56:18.744Z,35.20
2018-03-14T21:58:45.187Z,33.25
2018-03-14T22:01:11.557Z,35.10
2018-03-14T22:03:37.943Z,34.65
2018-03-14T22:06:04.362Z,38.72
2018-03-14T22:08:30.763Z,37.93
2018-03-14T22:10:57.172Z,37.25
2018-03-14T22:13:23.542Z,38.95
2018-03-14T22:15:49.947Z,39.15
2018-03-14T22:18:17.154Z,41.28
2018-03-14T22:20:43.522Z,37.35
2018-03-14T22:23:09.934Z,38.30
2018-03-14T22:25:36.323Z,41.07
2018-03-14T22:28:02.734Z,41.35
2018-03-14T22:30:29.857Z,42.67
2018-03-14T22:32:56.258Z,45.50
2018-03-14T22:35:22.635Z,43.45
2018-03-14T22:37:49.032Z,45.53
2018-03-14T22:40:15.425Z,44.45
2018-03-14T22:42:42.539Z,46.05
2018-03-14T22:45:08.976Z,42.42
2018-03-14T22:47:35.374Z,44.72
2018-03-14T22:50:01.745Z,45.83
2018-03-14T22:52:28.182Z,45.03
2018-03-14T22:54:54.579Z,45.05
2018-03-14T22:57:20.973Z,44.85
2018-03-14T22:59:48.121Z,47.00
2018-03-14T23:02:15.248Z,43.17
2018-03-14T23:04:41.647Z,44.63
2018-03-14T23:07:08.014Z,48.78
2018-03-14T23:09:34.430Z,50.30
2018-03-14T23:12:00.814Z,47.75
2018-03-14T23:14:27.958Z,50.10
2018-03-14T23:16:54.363Z,47.73
2018-03-14T23:19:20.749Z,53.63
2018-03-14T23:21:47.182Z,52.90
2018-03-14T23:24:14.290Z,49.83
2018-03-14T23:26:40.698Z,59.40
2018-03-14T23:29:07.097Z,53.33
2018-03-14T23:31:34.231Z,58.45
2018-03-14T23:34:00.641Z,55.47
2018-03-14T23:36:27.086Z,56.92
2018-03-14T23:38:53.477Z,59.20
2018-03-14T23:41:19.868Z,55.15
2018-03-14T23:43:47.005Z,62.78
2018-03-14T23:46:13.370Z,57.88
2018-03-14T23:48:40.513Z,62.77
2018-03-14T23:51:07.688Z,60.53
2018-03-14T23:53:34.102Z,61.50
2018-03-14T23:56:01.266Z,60.35
2018-03-14T23:58:27.654Z,62.95
